Map

Track Data

SID SEASON NUMBER BASIN SUBBASIN NAME ISO_TIME NATURE LAT LON WMO_WIND WMO_PRES WMO_AGENCY TRACK_TYPE DIST2LAND LANDFALL IFLAG USA_AGENCY USA_ATCF_ID USA_LAT USA_LON USA_RECORD USA_STATUS USA_WIND USA_PRES USA_SSHS USA_R34_NE USA_R34_SE USA_R34_SW USA_R34_NW USA_R50_NE USA_R50_SE USA_R50_SW USA_R50_NW USA_R64_NE USA_R64_SE USA_R64_SW USA_R64_NW USA_POCI USA_ROCI USA_RMW USA_EYE TOKYO_LAT TOKYO_LON TOKYO_GRADE TOKYO_WIND TOKYO_PRES TOKYO_R50_DIR TOKYO_R50_LONG TOKYO_R50_SHORT TOKYO_R30_DIR TOKYO_R30_LONG TOKYO_R30_SHORT TOKYO_LAND CMA_LAT CMA_LON CMA_CAT CMA_WIND CMA_PRES HKO_LAT HKO_LON HKO_CAT HKO_WIND HKO_PRES NEWDELHI_LAT NEWDELHI_LON NEWDELHI_GRADE NEWDELHI_WIND NEWDELHI_PRES NEWDELHI_CI NEWDELHI_DP NEWDELHI_POCI REUNION_LAT REUNION_LON REUNION_TYPE REUNION_WIND REUNION_PRES REUNION_TNUM REUNION_CI REUNION_RMW REUNION_R34_NE REUNION_R34_SE REUNION_R34_SW REUNION_R34_NW REUNION_R50_NE REUNION_R50_SE REUNION_R50_SW REUNION_R50_NW REUNION_R64_NE REUNION_R64_SE REUNION_R64_SW REUNION_R64_NW BOM_LAT BOM_LON BOM_TYPE BOM_WIND BOM_PRES BOM_TNUM BOM_CI BOM_RMW BOM_R34_NE BOM_R34_SE BOM_R34_SW BOM_R34_NW BOM_R50_NE BOM_R50_SE BOM_R50_SW BOM_R50_NW BOM_R64_NE BOM_R64_SE BOM_R64_SW BOM_R64_NW BOM_ROCI BOM_POCI BOM_EYE BOM_POS_METHOD BOM_PRES_METHOD NADI_LAT NADI_LON NADI_CAT NADI_WIND NADI_PRES WELLINGTON_LAT WELLINGTON_LON WELLINGTON_WIND WELLINGTON_PRES DS824_LAT DS824_LON DS824_STAGE DS824_WIND DS824_PRES TD9636_LAT TD9636_LON TD9636_STAGE TD9636_WIND TD9636_PRES TD9635_LAT TD9635_LON TD9635_WIND TD9635_PRES TD9635_ROCI NEUMANN_LAT NEUMANN_LON NEUMANN_CLASS NEUMANN_WIND NEUMANN_PRES MLC_LAT MLC_LON MLC_CLASS MLC_WIND MLC_PRES USA_GUST BOM_GUST BOM_GUST_PER REUNION_GUST REUNION_GUST_PER USA_SEAHGT USA_SEARAD_NE USA_SEARAD_SE USA_SEARAD_SW USA_SEARAD_NW STORM_SPEED STORM_DIR
1887226N16302 1887 34 NA NA NOT_NAMED 1887-08-14 00:00:00 TS 16.0000 -58.2000 main 666 661 _____________O -1 16.0000 -58.2000 TD 30 12 295
1887226N16302 1887 34 NA NA NOT_NAMED 1887-08-14 03:00:00 TS 16.2503 -58.7497 main 674 663 _____________P -1 16.2503 -58.7497 TD 30 12 295
1887226N16302 1887 34 NA NA NOT_NAMED 1887-08-14 06:00:00 TS 16.5000 -59.3000 main 674 637 _____________O -1 16.5000 -59.3000 TD 30 12 295
1887226N16302 1887 34 NA NA NOT_NAMED 1887-08-14 09:00:00 TS 16.7499 -59.8501 main 627 618 _____________P -1 16.7499 -59.8501 TD 32 8 309
1887226N16302 1887 34 NA NA NOT_NAMED 1887-08-14 12:00:00 TS 17.0000 -59.9333 35 hurdat_atl main 618 580 O____________O hurdat_atl AL061887 17.0000 -59.0000 TS 35 0 17.0000 -60.4000 TS 35 7 330
1887226N16302 1887 34 NA NA NOT_NAMED 1887-08-14 15:00:00 TS 17.3713 -60.2273 main 578 530 P____________P AL061887 17.5003 -59.5044 TS 35 0 17.2424 -60.9502 TS 35 10 321
1887226N16302 1887 34 NA NA NOT_NAMED 1887-08-14 18:00:00 TS 17.8000 -60.6000 35 hurdat_atl main 530 485 O____________O hurdat_atl AL061887 18.0000 -60.0000 TS 35 0 17.5000 -61.5000 TS 35 12 320
1887226N16302 1887 34 NA NA NOT_NAMED 1887-08-14 21:00:00 TS 18.2539 -61.0071 main 485 432 P____________P AL061887 18.4997 -60.4854 TS 35 0 17.7624 -62.0504 TS 35 13 315
1887226N16302 1887 34 NA NA NOT_NAMED 1887-08-15 00:00:00 TS 18.7000 -61.5333 35 hurdat_atl main 433 379 O____________O hurdat_atl AL061887 19.0000 -61.0000 TS 35 0 18.1000 -62.6000 TS 35 14 312
1887226N16302 1887 34 NA NA NOT_NAMED 1887-08-15 03:00:00 TS 19.1874 -62.1069 main 379 337 P____________P AL061887 19.4999 -61.5852 TS 35 0 18.5624 -63.1501 TS 35 15 312
1887226N16302 1887 34 NA NA NOT_NAMED 1887-08-15 06:00:00 TS 19.7000 -62.7000 35 hurdat_atl main 337 314 O____________O hurdat_atl AL061887 20.0000 -62.2000 TS 35 0 19.1000 -63.7000 TS 35 15 313
1887226N16302 1887 34 NA NA NOT_NAMED 1887-08-15 09:00:00 TS 20.2265 -63.2860 main 314 313 P____________P AL061887 20.5148 -62.8002 TS 35 0 19.6499 -64.2576 TS 37 15 313
1887226N16302 1887 34 NA NA NOT_NAMED 1887-08-15 12:00:00 TS 20.7333 -63.8667 35 hurdat_atl main 312 312 O____________O hurdat_atl AL061887 21.0000 -63.4000 TS 35 0 20.2000 -64.8000 TS 40 14 312
1887226N16302 1887 34 NA NA NOT_NAMED 1887-08-15 15:00:00 TS 21.1889 -64.4337 main 337 333 P____________P AL061887 21.4298 -64.0003 TS 37 0 20.7072 -65.3006 TS 45 14 309
1887226N16302 1887 34 NA NA NOT_NAMED 1887-08-15 18:00:00 TS 21.6000 -65.0000 40 hurdat_atl main 363 361 O____________O hurdat_atl AL061887 21.8000 -64.6000 TS 40 0 21.2000 -65.8000 TS 50 13 306
1887226N16302 1887 34 NA NA NOT_NAMED 1887-08-15 21:00:00 TS 21.9790 -65.5862 main 402 402 P____________P AL061887 22.1224 -65.2078 TS 40 0 21.6924 -66.3429 TS 52 13 304
1887226N16302 1887 34 NA NA NOT_NAMED 1887-08-16 00:00:00 TS 22.3333 -66.1667 40 hurdat_atl main 436 436 O____________O hurdat_atl AL061887 22.4000 -65.8000 TS 40 0 22.2000 -66.9000 TS 55 13 304
1887226N16302 1887 34 NA NA NOT_NAMED 1887-08-16 03:00:00 TS 22.6856 -66.7245 main 466 458 P____________P AL061887 22.6572 -66.3578 TS 42 0 22.7424 -67.4578 TS 57 12 305
1887226N16302 1887 34 NA NA NOT_NAMED 1887-08-16 06:00:00 TS 23.0333 -67.2667 45 hurdat_atl main 462 462 O____________O hurdat_atl AL061887 22.9000 -66.9000 TS 45 0 23.3000 -68.0000 TS 60 12 305
1887226N16302 1887 34 NA NA NOT_NAMED 1887-08-16 09:00:00 TS 23.3906 -67.8002 main 481 477 P____________P AL061887 23.1573 -67.4501 TS 47 0 23.8572 -68.5005 TS 62 12 306
1887226N16302 1887 34 NA NA NOT_NAMED 1887-08-16 12:00:00 TS 23.7333 -68.3333 50 hurdat_atl main 490 490 O____________O hurdat_atl AL061887 23.4000 -68.0000 TS 50 0 24.4000 -69.0000 HU 65 12 303
1887226N16302 1887 34 NA NA NOT_NAMED 1887-08-16 15:00:00 TS 24.0457 -68.8885 main 501 501 P____________P AL061887 23.6073 -68.5503 TS 50 0 24.9226 -69.5650 HU 67 12 301
1887226N16302 1887 34 NA NA NOT_NAMED 1887-08-16 18:00:00 TS 24.3333 -69.4333 50 hurdat_atl main 506 493 O____________O hurdat_atl AL061887 23.8000 -69.1000 TS 50 0 25.4000 -70.1000 HU 70 11 300
1887226N16302 1887 34 NA NA NOT_NAMED 1887-08-16 21:00:00 TS 24.6048 -69.9412 main 495 482 P____________P AL061887 23.9998 -69.6502 TS 52 0 25.8147 -70.5232 HU 72 11 300
1887226N16302 1887 34 NA NA NOT_NAMED 1887-08-17 00:00:00 TS 24.8667 -70.4333 55 hurdat_atl main 491 480 O____________O hurdat_atl AL061887 24.2000 -70.2000 TS 55 0 26.2000 -70.9000 HU 75 10 301
1887226N16302 1887 34 NA NA NOT_NAMED 1887-08-17 03:00:00 TS 25.1381 -70.9285 main 485 485 P____________P AL061887 24.3997 -70.7427 TS 57 0 26.6149 -71.3001 HU 77 11 300
1887226N16302 1887 34 NA NA NOT_NAMED 1887-08-17 06:00:00 TS 25.4000 -71.4333 60 hurdat_atl main 497 493 O____________O hurdat_atl AL061887 24.6000 -71.3000 TS 60 0 27.0000 -71.7000 HU 80 11 298
1887226N16302 1887 34 NA NA NOT_NAMED 1887-08-17 09:00:00 TS 25.6332 -71.9644 main 502 502 P____________P AL061887 24.7923 -71.8853 TS 62 0 27.3150 -72.1227 HU 80 11 296
1887226N16302 1887 34 NA NA NOT_NAMED 1887-08-17 12:00:00 TS 25.8667 -72.5000 65 hurdat_atl main 527 504 O____________O hurdat_atl AL061887 25.0000 -72.5000 HU 65 1 27.6000 -72.5000 HU 80 11 297
1887226N16302 1887 34 NA NA NOT_NAMED 1887-08-17 15:00:00 TS 26.1308 -73.0293 main 504 470 P____________P AL061887 25.2425 -73.1575 HU 67 1 27.9073 -72.7728 HU 80 11 300
1887226N16302 1887 34 NA NA NOT_NAMED 1887-08-17 18:00:00 TS 26.4000 -73.5333 70 hurdat_atl main 470 433 O____________O hurdat_atl AL061887 25.5000 -73.8000 HU 70 1 28.2000 -73.0000 HU 80 10 301
1887226N16302 1887 34 NA NA NOT_NAMED 1887-08-17 21:00:00 TS 26.6523 -74.0035 main 437 411 P____________P AL061887 25.7498 -74.3802 HU 72 1 28.4575 -73.2502 HU 80 9 302
1887226N16302 1887 34 NA NA NOT_NAMED 1887-08-18 00:00:00 TS 26.9000 -74.4333 75 hurdat_atl main 411 389 O____________O hurdat_atl AL061887 26.0000 -74.9000 HU 75 1 28.7000 -73.5000 HU 80 9 304
1887226N16302 1887 34 NA NA NOT_NAMED 1887-08-18 03:00:00 TS 27.1498 -74.8269 main 389 379 P____________P AL061887 26.2497 -75.3653 HU 77 1 28.9500 -73.7501 HU 80 8 306
1887226N16302 1887 34 NA NA NOT_NAMED 1887-08-18 06:00:00 TS 27.4000 -75.2000 80 hurdat_atl main 379 367 O____________O hurdat_atl AL061887 26.5000 -75.8000 HU 80 1 29.2000 -74.0000 HU 80 8 306
1887226N16302 1887 34 NA NA NOT_NAMED 1887-08-18 09:00:00 TS 27.6449 -75.5885 main 367 366 P____________P AL061887 26.7424 -76.2577 HU 82 1 29.4500 -74.2501 HU 82 8 306
1887226N16302 1887 34 NA NA NOT_NAMED 1887-08-18 12:00:00 TS 27.9000 -75.9667 85 hurdat_atl main 370 370 O____________O hurdat_atl AL061887 27.0000 -76.7000 HU 85 2 29.7000 -74.5000 HU 85 8 309
1887226N16302 1887 34 NA NA NOT_NAMED 1887-08-18 15:00:00 TS 28.1833 -76.3292 main 385 378 P____________P AL061887 27.2999 -77.1150 HU 87 2 29.9500 -74.7576 HU 87 8 313
1887226N16302 1887 34 NA NA NOT_NAMED 1887-08-18 18:00:00 TS 28.4667 -76.6667 90 hurdat_atl main 370 342 O____________O hurdat_atl AL061887 27.6000 -77.5000 HU 90 2 30.2000 -75.0000 HU 90 8 313
1887226N16302 1887 34 NA NA NOT_NAMED 1887-08-18 21:00:00 TS 28.7216 -76.9769 main 342 316 P____________P AL061887 27.8574 -77.8652 HU 90 2 30.4499 -75.2002 HU 90 7 314
1887226N16302 1887 34 NA NA NOT_NAMED 1887-08-19 00:00:00 TS 28.9667 -77.2667 90 hurdat_atl main 316 292 O____________O hurdat_atl AL061887 28.1000 -78.2000 HU 90 2 30.7000 -75.4000 HU 90 7 312
1887226N16302 1887 34 NA NA NOT_NAMED 1887-08-19 03:00:00 TS 29.1967 -77.5751 main 292 280 P____________P AL061887 28.3200 -78.5376 HU 92 2 30.9500 -75.6500 HU 92 7 315
1887226N16302 1887 34 NA NA NOT_NAMED 1887-08-19 06:00:00 TS 29.4667 -77.8333 95 hurdat_atl main 285 276 O____________O hurdat_atl AL061887 28.6000 -78.8000 HU 95 2 31.2000 -75.9000 HU 95 7 328
1887226N16302 1887 34 NA NA NOT_NAMED 1887-08-19 09:00:00 TS 29.7999 -78.0091 main 282 282 P____________P AL061887 28.9824 -78.9598 HU 97 3 31.4349 -76.1078 HU 97 8 343
1887226N16302 1887 34 NA NA NOT_NAMED 1887-08-19 12:00:00 TS 30.2333 -78.1000 100 hurdat_atl main 296 271 O____________O hurdat_atl AL061887 29.5000 -79.0000 HU 100 3 31.7000 -76.3000 MH 100 10 353
1887226N16302 1887 34 NA NA NOT_NAMED 1887-08-19 15:00:00 TS 30.7816 -78.1570 main 263 216 P____________P AL061887 30.1548 -78.9743 HU 100 3 32.0350 -76.5223 MH 100 12 1
1887226N16302 1887 34 NA NA NOT_NAMED 1887-08-19 18:00:00 TS 31.4000 -78.1000 100 hurdat_atl main 216 179 O____________O hurdat_atl AL061887 30.9000 -78.8000 HU 100 3 32.4000 -76.7000 MH 100 13 9
1887226N16302 1887 34 NA NA NOT_NAMED 1887-08-19 21:00:00 TS 32.0340 -77.9150 main 179 149 P____________P AL061887 31.6647 -78.4825 HU 100 3 32.7724 -76.7802 MH 100 13 19
1887226N16302 1887 34 NA NA NOT_NAMED 1887-08-20 00:00:00 TS 32.6333 -77.6000 100 hurdat_atl main 149 115 O____________O hurdat_atl AL061887 32.4000 -78.0000 HU 100 3 33.1000 -76.8000 MH 100 12 29
1887226N16302 1887 34 NA NA NOT_NAMED 1887-08-20 03:00:00 TS 33.0948 -77.2156 main 115 114 P____________P AL061887 33.0071 -77.4159 HU 102 3 33.2700 -76.8150 MH 102 12 38
1887226N16302 1887 34 NA NA NOT_NAMED 1887-08-20 06:00:00 TS 33.5667 -76.7333 105 hurdat_atl main 119 69 O____________O hurdat_atl AL061887 33.6000 -76.7000 HU 105 3 33.5000 -76.8000 MH 105 13 38
1887226N16302 1887 34 NA NA NOT_NAMED 1887-08-20 09:00:00 TS 34.1560 -76.2300 main 62 49 P____________P AL061887 34.2622 -75.8935 HU 105 3 33.9436 -76.9030 MH 105 16 37
1887226N16302 1887 34 NA NA NOT_NAMED 1887-08-20 12:00:00 TS 34.8667 -75.5667 105 hurdat_atl main 63 63 O____________O hurdat_atl AL061887 35.0000 -75.0000 HU 105 3 34.6000 -76.7000 MH 105 20 40
1887226N16302 1887 34 NA NA NOT_NAMED 1887-08-20 15:00:00 TS 35.7107 -74.6635 main 72 72 P____________P AL061887 35.8416 -74.0865 HU 105 3 35.4489 -75.8175 MH 105 24 43
1887226N16302 1887 34 NA NA NOT_NAMED 1887-08-20 18:00:00 TS 36.6000 -73.6000 105 hurdat_atl main 190 190 O____________O hurdat_atl AL061887 36.7000 -73.1000 HU 105 3 36.4000 -74.6000 MH 105 969 24 45
1887226N16302 1887 34 NA NA NOT_NAMED 1887-08-20 21:00:00 TS 37.4060 -72.5324 main 248 248 P____________P AL061887 37.4564 -72.0418 HU 102 3 37.3052 -73.5137 MH 102 24 48
1887226N16302 1887 34 NA NA NOT_NAMED 1887-08-21 00:00:00 TS 38.2000 -71.3667 100 hurdat_atl main 289 281 O____________O hurdat_atl AL061887 38.2000 -70.9000 HU 100 3 38.2000 -72.3000 MH 100 25 50
1887226N16302 1887 34 NA NA NOT_NAMED 1887-08-21 03:00:00 TS 39.0490 -70.0563 main 282 234 P____________P AL061887 39.0221 -69.6651 HU 97 3 39.1030 -70.8387 MH 97 26 52
1887226N16302 1887 34 NA NA NOT_NAMED 1887-08-21 06:00:00 TS 39.8333 -68.7000 95 hurdat_atl main 237 227 O____________O hurdat_atl AL061887 39.8000 -68.4000 HU 95 2 39.9000 -69.3000 HU 95 24 54
1887226N16302 1887 34 NA NA NOT_NAMED 1887-08-21 09:00:00 TS 40.4594 -67.4975 main 247 247 P____________P AL061887 40.4390 -67.3063 HU 92 2 40.5001 -67.8801 HU 92 23 59
1887226N16302 1887 34 NA NA NOT_NAMED 1887-08-21 12:00:00 TS 41.0000 -66.1667 90 hurdat_atl main 281 227 O____________O hurdat_atl AL061887 41.0000 -66.0000 HU 90 2 41.0000 -66.5000 HU 90 25 65
1887226N16302 1887 34 NA NA NOT_NAMED 1887-08-21 15:00:00 TS 41.5223 -64.4626 main 231 223 P____________P AL061887 41.5308 -64.1416 HU 85 2 41.5055 -65.1047 HU 85 29 70
1887226N16302 1887 34 NA NA NOT_NAMED 1887-08-21 18:00:00 TS 42.0000 -62.5667 80 hurdat_atl main 268 268 O____________O hurdat_atl AL061887 42.0000 -62.0000 HU 80 1 42.0000 -63.7000 HU 80 29 72
1887226N16302 1887 34 NA NA NOT_NAMED 1887-08-21 21:00:00 TS 42.4500 -60.6895 main 303 296 P____________P AL061887 42.4280 -59.8556 HU 77 1 42.4939 -62.3574 HU 77 30 73
1887226N16302 1887 34 NA NA NOT_NAMED 1887-08-22 00:00:00 TS 42.8667 -58.7333 75 hurdat_atl main 319 319 O____________O hurdat_atl AL061887 42.8000 -57.7000 HU 75 1 43.0000 -60.8000 HU 75 971 30 75
1887226N16302 1887 34 NA NA NOT_NAMED 1887-08-22 03:00:00 TS 43.2394 -56.6939 main 394 344 P____________P AL061887 43.1105 -55.6314 HU 72 1 43.4973 -58.8188 HU 72 31 76
1887226N16302 1887 34 NA NA NOT_NAMED 1887-08-22 06:00:00 TS 43.6000 -54.5667 70 hurdat_atl main 342 300 O____________O hurdat_atl AL061887 43.4000 -53.6000 HU 70 1 44.0000 -56.5000 HU 70 32 77
1887226N16302 1887 34 NA NA NOT_NAMED 1887-08-22 09:00:00 TS 43.9510 -52.3155 main 297 297 P____________P AL061887 43.6747 -51.5310 HU 70 1 44.5037 -53.8846 HU 70 33 77
1887226N16302 1887 34 NA NA NOT_NAMED 1887-08-22 12:00:00 MX 44.3333 -50.1000 70 hurdat_atl main 351 348 O____________O hurdat_atl AL061887 44.0000 -49.5000 EX 70 -4 45.0000 -51.3000 HU 70 31 75
1887226N16302 1887 34 NA NA NOT_NAMED 1887-08-22 15:00:00 MX 44.7702 -48.0613 main 438 438 P____________P AL061887 44.4096 -47.5108 EX 72 -4 45.4914 -49.1624 HU 72 30 72
1887226N16302 1887 34 NA NA NOT_NAMED 1887-08-22 18:00:00 MX 45.2667 -46.1333 75 hurdat_atl main 553 553 O____________O hurdat_atl AL061887 44.9000 -45.6000 EX 75 -4 46.0000 -47.2000 HU 75 29 70
1887226N16302 1887 34 NA NA NOT_NAMED 1887-08-22 21:00:00 MX 45.7617 -44.2201 main 665 665 P____________P AL061887 45.3944 -43.7570 EX 72 -4 46.4964 -45.1463 HU 72 28 68
1887226N16302 1887 34 NA NA NOT_NAMED 1887-08-23 00:00:00 ET 46.3333 -42.3667 70 hurdat_atl main 782 782 O____________O hurdat_atl AL061887 46.0000 -42.0000 EX 70 -4 47.0000 -43.1000 EX 70 28 64
1887226N16302 1887 34 NA NA NOT_NAMED 1887-08-23 03:00:00 ET 47.0146 -40.5479 main 910 910 P____________P AL061887 46.7737 -40.2988 EX 70 -4 47.4964 -41.0462 EX 70 28 61
1887226N16302 1887 34 NA NA NOT_NAMED 1887-08-23 06:00:00 ET 47.7333 -38.7333 70 hurdat_atl main 1036 1036 O____________O hurdat_atl AL061887 47.6000 -38.6000 EX 70 -4 48.0000 -39.0000 EX 70 28 61
1887226N16302 1887 34 NA NA NOT_NAMED 1887-08-23 09:00:00 ET 48.3604 -36.9225 main 1166 1166 P____________P AL061887 48.2926 -36.9072 EX 70 -4 48.4960 -36.9533 EX 70 28 63
1887226N16302 1887 34 NA NA NOT_NAMED 1887-08-23 12:00:00 ET 49.0000 -34.9600 70 972 hurdat_atl main 1304 1304 O____________O hurdat_atl AL061887 49.0000 -35.0000 EX 70 972 -4 49.0000 -34.9000 EX 70 972 30 65
1887226N16302 1887 34 NA NA NOT_NAMED 1887-08-23 15:00:00 ET 49.6436 -32.7312 main 1335 1327 P____________P AL061887 49.7907 -32.6589 EX 70 -4 49.4966 -32.8035 EX 70 32 67
1887226N16302 1887 34 NA NA NOT_NAMED 1887-08-23 18:00:00 ET 50.2400 -30.4200 70 hurdat_atl main 1354 1267 O____________O hurdat_atl AL061887 50.6000 -30.0000 EX 70 -4 50.0000 -30.7000 EX 70 28 72
1887226N16302 1887 34 NA NA NOT_NAMED 1887-08-23 21:00:00 ET 50.5072 -28.6066 main 1261 1111 _____________P AL061887 EX -4 50.5072 -28.6066 EX 65 26 73
1887226N16302 1887 34 NA NA NOT_NAMED 1887-08-24 00:00:00 ET 51.0000 -26.5000 main 1105 _____________O -1 51.0000 -26.5000 EX 60 28 70

About IBTrACS Database

This database is a web-friendly format of International Best Track Archive for Climate Stewardship (IBTrACS), a global best track data archive curated by NOAA dating back to 1842.

Updated: 2021-10-21